createdAt,value
2024-04-15T00:05:21.593Z,4
2024-04-15T00:10:44.537Z,3
2024-04-15T00:16:07.425Z,4
2024-04-15T00:21:30.218Z,2
2024-04-15T00:26:53.274Z,5
2024-04-15T00:32:16.440Z,4
2024-04-15T00:37:56.501Z,3
2024-04-15T00:43:36.556Z,2
2024-04-15T00:49:16.504Z,0
2024-04-15T00:54:56.704Z,1
2024-04-15T01:00:36.554Z,2
2024-04-15T01:06:16.547Z,3
2024-04-15T01:11:56.465Z,2
2024-04-15T01:17:36.685Z,1
2024-04-15T01:23:16.697Z,1
2024-04-15T01:28:56.603Z,4
2024-04-15T01:34:52.570Z,3
2024-04-15T01:40:15.391Z,4
2024-04-15T01:45:38.280Z,2
2024-04-15T01:51:01.040Z,2
2024-04-15T01:56:23.843Z,2
2024-04-15T02:01:46.607Z,1
2024-04-15T02:07:09.397Z,2
2024-04-15T02:12:32.340Z,2
2024-04-15T02:17:55.161Z,5
2024-04-15T02:23:18.098Z,5
2024-04-15T02:28:40.982Z,4
2024-04-15T02:34:03.773Z,3
2024-04-15T02:39:26.667Z,2
2024-04-15T02:44:49.622Z,2
2024-04-15T02:50:12.558Z,3
2024-04-15T02:55:35.601Z,3
2024-04-15T03:00:58.532Z,3
2024-04-15T03:06:21.406Z,2
2024-04-15T03:11:44.242Z,2
2024-04-15T03:17:07.156Z,3
2024-04-15T03:22:29.979Z,2
2024-04-15T03:27:52.849Z,3
2024-04-15T03:33:15.608Z,3
2024-04-15T03:38:38.406Z,2
2024-04-15T03:44:01.387Z,2
2024-04-15T03:49:24.373Z,7
2024-04-15T03:54:47.198Z,2
2024-04-15T04:00:10.069Z,4
2024-04-15T04:05:32.906Z,4
2024-04-15T04:10:55.904Z,3
2024-04-15T04:16:18.787Z,3
2024-04-15T04:21:41.765Z,7
2024-04-15T04:27:04.514Z,3
2024-04-15T04:32:27.406Z,4
2024-04-15T04:37:50.182Z,13
2024-04-15T04:43:12.931Z,6
2024-04-15T04:48:36.102Z,12
2024-04-15T04:53:59.138Z,1
2024-04-15T04:59:21.498Z,9
2024-04-15T05:04:44.301Z,35
2024-04-15T05:10:06.898Z,12
2024-04-15T05:15:46.875Z,4
2024-04-15T05:21:09.637Z,12
2024-04-15T05:26:32.535Z,9
2024-04-15T05:31:55.311Z,4
2024-04-15T05:37:18.009Z,7
2024-04-15T05:42:40.936Z,10
2024-04-15T05:48:03.836Z,7
2024-04-15T05:53:26.462Z,14
2024-04-15T05:58:49.106Z,10
2024-04-15T06:04:11.797Z,18
2024-04-15T06:09:34.700Z,16
2024-04-15T06:14:57.653Z,11
2024-04-15T06:20:20.386Z,19
2024-04-15T06:25:43.270Z,21
2024-04-15T06:31:05.940Z,13
2024-04-15T06:36:28.509Z,12
2024-04-15T06:41:51.337Z,21
2024-04-15T06:47:14.284Z,13
2024-04-15T06:52:37.010Z,17
2024-04-15T06:57:59.748Z,21
2024-04-15T07:03:22.489Z,37
2024-04-15T07:08:45.234Z,21
2024-04-15T07:14:08.097Z,19
2024-04-15T07:19:30.975Z,21
2024-04-15T07:24:54.049Z,27
2024-04-15T07:30:16.806Z,35
2024-04-15T07:35:39.751Z,32
2024-04-15T07:41:02.488Z,18
2024-04-15T07:46:25.303Z,27
2024-04-15T07:51:48.184Z,16
2024-04-15T07:57:11.244Z,19
2024-04-15T08:02:33.972Z,28
2024-04-15T08:07:56.825Z,29
2024-04-15T08:13:19.744Z,21
2024-04-15T08:18:42.676Z,23
2024-04-15T08:24:05.546Z,16
2024-04-15T08:29:28.334Z,18
2024-04-15T08:34:51.053Z,19
2024-04-15T08:40:13.917Z,22
2024-04-15T08:45:36.724Z,22
2024-04-15T08:50:59.452Z,18
2024-04-15T08:56:22.267Z,26
2024-04-15T09:01:45.154Z,16
2024-04-15T09:07:07.956Z,19
2024-04-15T09:12:30.891Z,26
2024-04-15T09:17:53.816Z,24
2024-04-15T09:23:16.652Z,26
2024-04-15T09:28:39.543Z,23
2024-04-15T09:34:02.591Z,20
2024-04-15T09:39:25.416Z,21
2024-04-15T09:44:48.228Z,24
2024-04-15T09:50:11.116Z,29
2024-04-15T09:55:33.826Z,23
2024-04-15T10:00:56.597Z,13
2024-04-15T10:06:19.476Z,17
2024-04-15T10:11:42.373Z,22
2024-04-15T10:17:05.125Z,26
2024-04-15T10:22:27.823Z,28
2024-04-15T10:27:50.715Z,26
2024-04-15T10:33:13.550Z,29
2024-04-15T10:38:36.544Z,31
2024-04-15T10:43:59.439Z,31
2024-04-15T10:49:22.124Z,36
2024-04-15T10:54:44.903Z,28
2024-04-15T11:00:06.626Z,36
2024-04-15T11:05:29.718Z,14
2024-04-15T11:10:52.237Z,38
2024-04-15T11:16:15.211Z,41
2024-04-15T11:21:38.194Z,52
2024-04-15T11:27:00.856Z,34
2024-04-15T11:32:23.665Z,36
2024-04-15T11:37:46.380Z,44
2024-04-15T11:43:09.141Z,35
2024-04-15T11:48:31.854Z,38
2024-04-15T11:53:54.441Z,27
2024-04-15T11:59:17.336Z,22
2024-04-15T12:04:39.993Z,17
2024-04-15T12:10:02.650Z,14
2024-04-15T12:15:25.374Z,28
2024-04-15T12:20:48.235Z,21
2024-04-15T12:26:10.982Z,29
2024-04-15T12:31:33.725Z,28
2024-04-15T12:36:56.415Z,38
2024-04-15T12:42:19.160Z,38
2024-04-15T12:47:42.111Z,23
2024-04-15T12:53:05.011Z,30
2024-04-15T12:58:27.912Z,25
2024-04-15T13:03:50.773Z,23
2024-04-15T13:09:13.398Z,48
2024-04-15T13:14:36.330Z,35
2024-04-15T13:19:59.199Z,40
2024-04-15T13:25:22.051Z,33
2024-04-15T13:30:44.597Z,49
2024-04-15T13:36:07.383Z,37
2024-04-15T13:41:30.105Z,38
2024-04-15T13:46:53.249Z,50
2024-04-15T13:52:16.284Z,56
2024-04-15T13:57:39.043Z,35
2024-04-15T14:03:01.577Z,41
2024-04-15T14:08:24.247Z,49
2024-04-15T14:14:04.010Z,41
2024-04-15T14:19:26.467Z,46
2024-04-15T14:24:49.257Z,33
2024-04-15T14:30:11.753Z,45
2024-04-15T14:35:34.369Z,32
2024-04-15T14:40:57.277Z,39
2024-04-15T14:46:19.972Z,41
2024-04-15T14:51:42.533Z,58
2024-04-15T14:57:05.156Z,41
2024-04-15T15:02:27.732Z,45
2024-04-15T15:07:50.593Z,55
2024-04-15T15:13:13.587Z,52
2024-04-15T15:18:36.668Z,40
2024-04-15T15:23:59.530Z,49
2024-04-15T15:29:21.991Z,30
2024-04-15T15:34:44.643Z,35
2024-04-15T15:40:07.497Z,27
2024-04-15T15:50:52.774Z,49
2024-04-15T15:56:15.435Z,28
2024-04-15T16:01:38.062Z,42
2024-04-15T16:07:00.688Z,38
2024-04-15T16:12:23.567Z,24
2024-04-15T16:17:46.262Z,31
2024-04-15T16:23:09.113Z,26
2024-04-15T16:28:31.857Z,26
2024-04-15T16:33:54.650Z,36
2024-04-15T16:39:17.532Z,20
2024-04-15T16:44:40.262Z,28
2024-04-15T16:50:03.142Z,32
2024-04-15T16:55:25.917Z,24
2024-04-15T17:00:48.625Z,29
2024-04-15T17:06:11.519Z,17
2024-04-15T17:11:34.206Z,15
2024-04-15T17:16:56.863Z,14
2024-04-15T17:22:19.450Z,15
2024-04-15T17:27:42.036Z,18
2024-04-15T17:33:04.644Z,11
2024-04-15T17:38:27.337Z,5
2024-04-15T17:43:50.019Z,11
2024-04-15T17:49:12.691Z,11
2024-04-15T17:54:35.444Z,13
2024-04-15T17:59:58.436Z,14
2024-04-15T18:05:21.169Z,16
2024-04-15T18:10:43.808Z,13
2024-04-15T18:16:06.553Z,12
2024-04-15T18:21:29.411Z,13
2024-04-15T18:26:52.301Z,6
2024-04-15T18:32:16.600Z,7
2024-04-15T18:37:39.808Z,9
2024-04-15T18:43:02.936Z,12
2024-04-15T18:48:25.660Z,13
2024-04-15T18:59:11.444Z,4
2024-04-15T19:04:34.297Z,13
2024-04-15T19:09:56.889Z,15
2024-04-15T19:15:19.744Z,13
2024-04-15T19:20:42.526Z,13
2024-04-15T19:26:05.423Z,10
2024-04-15T19:31:28.137Z,17
2024-04-15T19:36:50.820Z,9
2024-04-15T19:42:13.322Z,13
2024-04-15T19:47:35.632Z,13
2024-04-15T19:52:58.342Z,11
2024-04-15T19:58:20.916Z,15
2024-04-15T20:03:43.731Z,9
2024-04-15T20:09:06.362Z,6
2024-04-15T20:14:29.304Z,8
2024-04-15T20:19:51.952Z,9
2024-04-15T20:25:14.781Z,12
2024-04-15T20:30:37.368Z,11
2024-04-15T20:35:59.932Z,11
2024-04-15T20:41:22.672Z,9
2024-04-15T20:46:45.434Z,9
2024-04-15T20:52:08.193Z,11
2024-04-15T20:57:31.026Z,11
2024-04-15T21:02:53.781Z,13
2024-04-15T21:08:16.802Z,13
2024-04-15T21:13:39.905Z,11
2024-04-15T21:19:02.710Z,15
2024-04-15T21:24:25.677Z,12
2024-04-15T21:35:11.372Z,9
2024-04-15T21:40:34.253Z,11
2024-04-15T21:45:57.174Z,13
2024-04-15T21:51:19.777Z,12
2024-04-15T21:56:42.826Z,10
2024-04-15T22:02:05.771Z,10
2024-04-15T22:07:28.809Z,10
2024-04-15T22:12:51.710Z,9
2024-04-15T22:18:14.447Z,10
2024-04-15T22:23:37.453Z,7
2024-04-15T22:29:00.229Z,8
2024-04-15T22:34:23.140Z,5
2024-04-15T22:39:45.843Z,6
2024-04-15T22:45:08.772Z,8
2024-04-15T22:50:31.725Z,5
2024-04-15T22:55:54.575Z,2
2024-04-15T23:01:17.686Z,2
2024-04-15T23:06:40.534Z,3
2024-04-15T23:12:03.557Z,4
2024-04-15T23:17:26.599Z,4
2024-04-15T23:22:49.764Z,3
2024-04-15T23:28:12.736Z,3
2024-04-15T23:33:35.561Z,7
2024-04-15T23:38:58.670Z,6
2024-04-15T23:44:21.710Z,6
2024-04-15T23:49:44.687Z,8
2024-04-15T23:55:07.511Z,4
